sensor_id;sensor_type;location;lat;lon;timestamp;P1;durP1;ratioP1;P2;durP2;ratioP2
37677;SDS011;23517;50.390;8.616;2023-01-19T00:00:50;7.47;;;3.97;;
37677;SDS011;23517;50.390;8.616;2023-01-19T00:03:17;7.78;;;4.65;;
37677;SDS011;23517;50.390;8.616;2023-01-19T00:05:44;8.20;;;4.20;;
37677;SDS011;23517;50.390;8.616;2023-01-19T00:08:10;7.72;;;4.13;;
37677;SDS011;23517;50.390;8.616;2023-01-19T00:10:41;10.80;;;4.47;;
37677;SDS011;23517;50.390;8.616;2023-01-19T00:13:10;7.38;;;4.07;;
37677;SDS011;23517;50.390;8.616;2023-01-19T00:15:37;10.27;;;4.30;;
37677;SDS011;23517;50.390;8.616;2023-01-19T00:18:04;7.20;;;4.65;;
37677;SDS011;23517;50.390;8.616;2023-01-19T00:20:32;9.45;;;4.53;;
37677;SDS011;23517;50.390;8.616;2023-01-19T00:23:01;8.60;;;4.20;;
37677;SDS011;23517;50.390;8.616;2023-01-19T00:25:28;9.05;;;4.82;;
37677;SDS011;23517;50.390;8.616;2023-01-19T00:27:55;7.63;;;4.05;;
37677;SDS011;23517;50.390;8.616;2023-01-19T00:30:28;8.77;;;4.55;;
37677;SDS011;23517;50.390;8.616;2023-01-19T00:32:55;9.50;;;4.68;;
37677;SDS011;23517;50.390;8.616;2023-01-19T00:35:22;9.00;;;4.82;;
37677;SDS011;23517;50.390;8.616;2023-01-19T00:37:49;8.27;;;4.70;;
37677;SDS011;23517;50.390;8.616;2023-01-19T00:40:15;10.35;;;4.40;;
37677;SDS011;23517;50.390;8.616;2023-01-19T00:42:43;7.80;;;4.43;;
37677;SDS011;23517;50.390;8.616;2023-01-19T00:45:10;10.02;;;4.53;;
37677;SDS011;23517;50.390;8.616;2023-01-19T00:47:40;8.45;;;4.43;;
37677;SDS011;23517;50.390;8.616;2023-01-19T00:50:08;11.68;;;5.60;;
37677;SDS011;23517;50.390;8.616;2023-01-19T00:52:39;9.13;;;5.10;;
37677;SDS011;23517;50.390;8.616;2023-01-19T00:55:07;11.52;;;4.93;;
37677;SDS011;23517;50.390;8.616;2023-01-19T00:57:36;7.05;;;4.15;;
37677;SDS011;23517;50.390;8.616;2023-01-19T01:00:05;7.53;;;4.20;;
37677;SDS011;23517;50.390;8.616;2023-01-19T01:02:38;9.00;;;4.07;;
37677;SDS011;23517;50.390;8.616;2023-01-19T01:05:09;8.15;;;4.40;;
37677;SDS011;23517;50.390;8.616;2023-01-19T01:07:36;7.70;;;4.65;;
37677;SDS011;23517;50.390;8.616;2023-01-19T01:12:40;10.43;;;4.63;;
37677;SDS011;23517;50.390;8.616;2023-01-19T01:15:24;6.78;;;3.80;;
37677;SDS011;23517;50.390;8.616;2023-01-19T01:17:54;9.45;;;4.00;;
37677;SDS011;23517;50.390;8.616;2023-01-19T01:20:23;7.05;;;4.30;;
37677;SDS011;23517;50.390;8.616;2023-01-19T01:22:53;7.88;;;3.85;;
37677;SDS011;23517;50.390;8.616;2023-01-19T01:25:23;9.43;;;3.90;;
37677;SDS011;23517;50.390;8.616;2023-01-19T01:27:52;8.07;;;3.55;;
37677;SDS011;23517;50.390;8.616;2023-01-19T01:30:19;9.50;;;4.13;;
37677;SDS011;23517;50.390;8.616;2023-01-19T01:32:47;6.32;;;3.63;;
37677;SDS011;23517;50.390;8.616;2023-01-19T01:35:14;6.50;;;4.13;;
37677;SDS011;23517;50.390;8.616;2023-01-19T01:37:41;6.30;;;3.80;;
37677;SDS011;23517;50.390;8.616;2023-01-19T01:40:10;6.55;;;3.92;;
37677;SDS011;23517;50.390;8.616;2023-01-19T01:42:40;8.95;;;3.80;;
37677;SDS011;23517;50.390;8.616;2023-01-19T01:48:11;7.88;;;3.80;;
37677;SDS011;23517;50.390;8.616;2023-01-19T01:50:49;6.28;;;3.67;;
37677;SDS011;23517;50.390;8.616;2023-01-19T01:53:39;7.93;;;3.70;;
37677;SDS011;23517;50.390;8.616;2023-01-19T01:56:08;7.93;;;3.85;;
37677;SDS011;23517;50.390;8.616;2023-01-19T01:58:39;6.85;;;3.92;;
37677;SDS011;23517;50.390;8.616;2023-01-19T02:01:07;6.43;;;4.00;;
37677;SDS011;23517;50.390;8.616;2023-01-19T02:03:54;7.55;;;4.63;;
37677;SDS011;23517;50.390;8.616;2023-01-19T02:06:23;8.48;;;4.18;;
37677;SDS011;23517;50.390;8.616;2023-01-19T02:08:56;7.93;;;4.10;;
37677;SDS011;23517;50.390;8.616;2023-01-19T02:11:48;7.03;;;4.68;;
37677;SDS011;23517;50.390;8.616;2023-01-19T02:14:35;12.60;;;5.30;;
37677;SDS011;23517;50.390;8.616;2023-01-19T02:17:04;7.35;;;5.20;;
37677;SDS011;23517;50.390;8.616;2023-01-19T02:19:33;8.05;;;5.45;;
37677;SDS011;23517;50.390;8.616;2023-01-19T02:22:19;10.88;;;5.38;;
37677;SDS011;23517;50.390;8.616;2023-01-19T02:24:55;10.02;;;5.18;;
37677;SDS011;23517;50.390;8.616;2023-01-19T02:27:22;11.88;;;6.07;;
37677;SDS011;23517;50.390;8.616;2023-01-19T02:29:48;10.73;;;6.00;;
37677;SDS011;23517;50.390;8.616;2023-01-19T02:32:15;15.25;;;5.45;;
37677;SDS011;23517;50.390;8.616;2023-01-19T02:34:42;10.50;;;5.32;;
37677;SDS011;23517;50.390;8.616;2023-01-19T02:37:10;6.35;;;4.95;;
37677;SDS011;23517;50.390;8.616;2023-01-19T02:39:43;7.80;;;4.53;;
37677;SDS011;23517;50.390;8.616;2023-01-19T02:42:24;7.30;;;4.72;;
37677;SDS011;23517;50.390;8.616;2023-01-19T02:44:57;8.38;;;4.80;;
37677;SDS011;23517;50.390;8.616;2023-01-19T02:47:24;10.48;;;4.88;;
37677;SDS011;23517;50.390;8.616;2023-01-19T02:49:58;8.48;;;4.93;;
37677;SDS011;23517;50.390;8.616;2023-01-19T02:52:25;8.00;;;5.00;;
37677;SDS011;23517;50.390;8.616;2023-01-19T02:58:05;11.90;;;5.13;;
37677;SDS011;23517;50.390;8.616;2023-01-19T03:00:46;10.75;;;4.93;;
37677;SDS011;23517;50.390;8.616;2023-01-19T03:03:31;9.38;;;5.00;;
37677;SDS011;23517;50.390;8.616;2023-01-19T03:06:08;11.43;;;5.20;;
37677;SDS011;23517;50.390;8.616;2023-01-19T03:08:54;15.63;;;4.75;;
37677;SDS011;23517;50.390;8.616;2023-01-19T03:12:01;7.13;;;4.72;;
37677;SDS011;23517;50.390;8.616;2023-01-19T03:14:43;7.75;;;4.55;;
37677;SDS011;23517;50.390;8.616;2023-01-19T03:17:14;6.50;;;4.28;;
37677;SDS011;23517;50.390;8.616;2023-01-19T03:19:43;11.95;;;4.68;;
37677;SDS011;23517;50.390;8.616;2023-01-19T03:22:25;7.65;;;4.70;;
37677;SDS011;23517;50.390;8.616;2023-01-19T03:24:55;8.13;;;4.40;;
37677;SDS011;23517;50.390;8.616;2023-01-19T03:27:29;7.35;;;4.35;;
37677;SDS011;23517;50.390;8.616;2023-01-19T03:30:04;7.70;;;4.60;;
37677;SDS011;23517;50.390;8.616;2023-01-19T03:32:41;12.25;;;5.00;;
37677;SDS011;23517;50.390;8.616;2023-01-19T03:35:30;9.88;;;4.63;;
37677;SDS011;23517;50.390;8.616;2023-01-19T03:38:02;7.18;;;4.15;;
37677;SDS011;23517;50.390;8.616;2023-01-19T03:40:37;9.32;;;4.47;;
37677;SDS011;23517;50.390;8.616;2023-01-19T03:43:04;7.22;;;4.65;;
37677;SDS011;23517;50.390;8.616;2023-01-19T03:45:32;6.50;;;4.07;;
37677;SDS011;23517;50.390;8.616;2023-01-19T03:48:02;9.07;;;4.97;;
37677;SDS011;23517;50.390;8.616;2023-01-19T03:50:32;8.70;;;4.82;;
37677;SDS011;23517;50.390;8.616;2023-01-19T03:53:08;7.80;;;4.45;;
37677;SDS011;23517;50.390;8.616;2023-01-19T03:55:38;6.15;;;3.88;;
37677;SDS011;23517;50.390;8.616;2023-01-19T03:58:07;8.90;;;4.38;;
37677;SDS011;23517;50.390;8.616;2023-01-19T04:00:35;7.38;;;4.28;;
37677;SDS011;23517;50.390;8.616;2023-01-19T04:03:02;9.38;;;4.78;;
37677;SDS011;23517;50.390;8.616;2023-01-19T04:05:31;7.68;;;4.70;;
37677;SDS011;23517;50.390;8.616;2023-01-19T04:07:58;8.45;;;4.32;;
37677;SDS011;23517;50.390;8.616;2023-01-19T04:10:25;10.77;;;5.03;;
37677;SDS011;23517;50.390;8.616;2023-01-19T04:12:58;9.52;;;5.20;;
37677;SDS011;23517;50.390;8.616;2023-01-19T04:15:27;9.90;;;4.53;;
37677;SDS011;23517;50.390;8.616;2023-01-19T04:17:56;7.95;;;4.93;;
37677;SDS011;23517;50.390;8.616;2023-01-19T04:20:24;9.25;;;5.25;;
37677;SDS011;23517;50.390;8.616;2023-01-19T04:22:53;6.40;;;4.35;;
37677;SDS011;23517;50.390;8.616;2023-01-19T04:25:25;7.30;;;4.47;;
37677;SDS011;23517;50.390;8.616;2023-01-19T04:27:53;10.75;;;4.90;;
37677;SDS011;23517;50.390;8.616;2023-01-19T04:30:20;8.40;;;4.93;;
37677;SDS011;23517;50.390;8.616;2023-01-19T04:32:47;11.35;;;5.70;;
37677;SDS011;23517;50.390;8.616;2023-01-19T04:35:14;8.18;;;5.20;;
37677;SDS011;23517;50.390;8.616;2023-01-19T04:37:42;10.15;;;5.13;;
37677;SDS011;23517;50.390;8.616;2023-01-19T04:40:10;9.63;;;4.97;;
37677;SDS011;23517;50.390;8.616;2023-01-19T04:42:37;7.85;;;5.30;;
37677;SDS011;23517;50.390;8.616;2023-01-19T04:45:04;8.57;;;5.03;;
37677;SDS011;23517;50.390;8.616;2023-01-19T04:47:31;8.45;;;4.88;;
37677;SDS011;23517;50.390;8.616;2023-01-19T04:49:57;9.57;;;4.88;;
37677;SDS011;23517;50.390;8.616;2023-01-19T04:52:24;8.07;;;4.95;;
37677;SDS011;23517;50.390;8.616;2023-01-19T04:55:00;6.35;;;4.32;;
37677;SDS011;23517;50.390;8.616;2023-01-19T04:57:29;12.75;;;6.03;;
37677;SDS011;23517;50.390;8.616;2023-01-19T04:59:56;7.70;;;4.75;;
37677;SDS011;23517;50.390;8.616;2023-01-19T05:02:23;13.05;;;5.53;;
37677;SDS011;23517;50.390;8.616;2023-01-19T05:04:51;11.68;;;5.88;;
37677;SDS011;23517;50.390;8.616;2023-01-19T05:07:18;9.10;;;4.38;;
37677;SDS011;23517;50.390;8.616;2023-01-19T05:09:44;8.60;;;4.82;;
37677;SDS011;23517;50.390;8.616;2023-01-19T05:12:11;9.57;;;4.90;;
37677;SDS011;23517;50.390;8.616;2023-01-19T05:14:38;8.50;;;4.32;;
37677;SDS011;23517;50.390;8.616;2023-01-19T05:17:04;8.65;;;4.28;;
37677;SDS011;23517;50.390;8.616;2023-01-19T05:19:31;6.78;;;4.43;;
37677;SDS011;23517;50.390;8.616;2023-01-19T05:21:58;7.45;;;4.65;;
37677;SDS011;23517;50.390;8.616;2023-01-19T05:24:24;7.57;;;4.55;;
37677;SDS011;23517;50.390;8.616;2023-01-19T05:26:51;6.32;;;4.05;;
37677;SDS011;23517;50.390;8.616;2023-01-19T05:29:17;8.88;;;5.00;;
37677;SDS011;23517;50.390;8.616;2023-01-19T05:31:44;9.25;;;4.60;;
37677;SDS011;23517;50.390;8.616;2023-01-19T05:34:13;10.40;;;5.32;;
37677;SDS011;23517;50.390;8.616;2023-01-19T05:36:40;7.97;;;4.68;;
37677;SDS011;23517;50.390;8.616;2023-01-19T05:39:08;9.35;;;5.10;;
37677;SDS011;23517;50.390;8.616;2023-01-19T05:41:37;8.93;;;5.05;;
37677;SDS011;23517;50.390;8.616;2023-01-19T05:44:04;8.45;;;5.07;;
37677;SDS011;23517;50.390;8.616;2023-01-19T05:46:31;7.93;;;5.03;;
37677;SDS011;23517;50.390;8.616;2023-01-19T05:48:59;7.93;;;5.03;;
37677;SDS011;23517;50.390;8.616;2023-01-19T05:51:29;7.55;;;5.40;;
37677;SDS011;23517;50.390;8.616;2023-01-19T05:54:00;8.02;;;5.03;;
37677;SDS011;23517;50.390;8.616;2023-01-19T05:56:27;11.70;;;5.60;;
37677;SDS011;23517;50.390;8.616;2023-01-19T05:58:54;6.53;;;4.65;;
37677;SDS011;23517;50.390;8.616;2023-01-19T06:01:20;10.57;;;5.20;;
37677;SDS011;23517;50.390;8.616;2023-01-19T06:03:47;7.72;;;4.85;;
37677;SDS011;23517;50.390;8.616;2023-01-19T06:06:14;9.73;;;5.38;;
37677;SDS011;23517;50.390;8.616;2023-01-19T06:08:40;9.82;;;5.40;;
37677;SDS011;23517;50.390;8.616;2023-01-19T06:11:07;8.95;;;5.30;;
37677;SDS011;23517;50.390;8.616;2023-01-19T06:13:34;8.70;;;5.75;;
37677;SDS011;23517;50.390;8.616;2023-01-19T06:16:03;9.07;;;5.72;;
37677;SDS011;23517;50.390;8.616;2023-01-19T06:18:31;8.77;;;5.85;;
37677;SDS011;23517;50.390;8.616;2023-01-19T06:20:57;10.50;;;5.50;;
37677;SDS011;23517;50.390;8.616;2023-01-19T06:23:29;9.00;;;5.55;;
37677;SDS011;23517;50.390;8.616;2023-01-19T06:25:57;14.18;;;5.82;;
37677;SDS011;23517;50.390;8.616;2023-01-19T06:28:31;12.05;;;6.65;;
37677;SDS011;23517;50.390;8.616;2023-01-19T06:30:57;11.10;;;5.70;;
37677;SDS011;23517;50.390;8.616;2023-01-19T06:33:26;11.77;;;5.57;;
37677;SDS011;23517;50.390;8.616;2023-01-19T06:35:53;13.93;;;7.25;;
37677;SDS011;23517;50.390;8.616;2023-01-19T06:38:21;8.73;;;6.15;;
37677;SDS011;23517;50.390;8.616;2023-01-19T06:40:55;9.75;;;6.10;;
37677;SDS011;23517;50.390;8.616;2023-01-19T06:43:24;8.52;;;5.70;;
37677;SDS011;23517;50.390;8.616;2023-01-19T06:45:51;10.30;;;6.57;;
37677;SDS011;23517;50.390;8.616;2023-01-19T06:48:18;10.45;;;7.03;;
37677;SDS011;23517;50.390;8.616;2023-01-19T06:50:46;9.63;;;5.97;;
37677;SDS011;23517;50.390;8.616;2023-01-19T06:53:13;12.23;;;6.07;;
37677;SDS011;23517;50.390;8.616;2023-01-19T06:55:42;14.43;;;6.63;;
37677;SDS011;23517;50.390;8.616;2023-01-19T06:58:09;12.48;;;6.78;;
37677;SDS011;23517;50.390;8.616;2023-01-19T07:00:36;8.88;;;6.25;;
37677;SDS011;23517;50.390;8.616;2023-01-19T07:03:06;9.40;;;6.30;;
37677;SDS011;23517;50.390;8.616;2023-01-19T07:05:34;9.55;;;6.30;;
37677;SDS011;23517;50.390;8.616;2023-01-19T07:08:01;8.60;;;6.03;;
37677;SDS011;23517;50.390;8.616;2023-01-19T07:10:29;8.85;;;5.95;;
37677;SDS011;23517;50.390;8.616;2023-01-19T07:13:15;9.60;;;6.13;;
37677;SDS011;23517;50.390;8.616;2023-01-19T07:15:44;8.93;;;6.15;;
37677;SDS011;23517;50.390;8.616;2023-01-19T07:18:10;9.48;;;6.43;;
37677;SDS011;23517;50.390;8.616;2023-01-19T07:20:37;8.10;;;5.40;;
37677;SDS011;23517;50.390;8.616;2023-01-19T07:23:04;7.85;;;5.88;;
37677;SDS011;23517;50.390;8.616;2023-01-19T07:25:30;9.80;;;6.13;;
37677;SDS011;23517;50.390;8.616;2023-01-19T07:28:00;10.32;;;6.30;;
37677;SDS011;23517;50.390;8.616;2023-01-19T07:30:28;9.93;;;6.20;;
37677;SDS011;23517;50.390;8.616;2023-01-19T07:32:55;11.75;;;5.70;;
37677;SDS011;23517;50.390;8.616;2023-01-19T07:35:25;11.13;;;5.93;;
37677;SDS011;23517;50.390;8.616;2023-01-19T07:37:52;10.80;;;6.00;;
37677;SDS011;23517;50.390;8.616;2023-01-19T07:40:18;9.35;;;6.40;;
37677;SDS011;23517;50.390;8.616;2023-01-19T07:42:47;10.07;;;6.15;;
37677;SDS011;23517;50.390;8.616;2023-01-19T07:45:16;11.35;;;6.32;;
37677;SDS011;23517;50.390;8.616;2023-01-19T07:47:45;8.10;;;5.85;;
37677;SDS011;23517;50.390;8.616;2023-01-19T07:50:14;9.50;;;6.25;;
37677;SDS011;23517;50.390;8.616;2023-01-19T07:52:42;8.02;;;5.35;;
37677;SDS011;23517;50.390;8.616;2023-01-19T07:55:09;11.20;;;5.78;;
37677;SDS011;23517;50.390;8.616;2023-01-19T07:57:36;8.50;;;5.65;;
37677;SDS011;23517;50.390;8.616;2023-01-19T08:00:03;6.90;;;5.30;;
37677;SDS011;23517;50.390;8.616;2023-01-19T08:02:31;10.55;;;5.82;;
37677;SDS011;23517;50.390;8.616;2023-01-19T08:04:59;9.25;;;5.53;;
37677;SDS011;23517;50.390;8.616;2023-01-19T08:07:25;7.93;;;5.72;;
37677;SDS011;23517;50.390;8.616;2023-01-19T08:09:52;8.45;;;6.00;;
37677;SDS011;23517;50.390;8.616;2023-01-19T08:12:19;7.65;;;5.05;;
37677;SDS011;23517;50.390;8.616;2023-01-19T08:14:45;12.35;;;5.72;;
37677;SDS011;23517;50.390;8.616;2023-01-19T08:17:12;10.18;;;5.95;;
37677;SDS011;23517;50.390;8.616;2023-01-19T08:19:39;10.50;;;5.55;;
37677;SDS011;23517;50.390;8.616;2023-01-19T08:22:09;6.80;;;5.22;;
37677;SDS011;23517;50.390;8.616;2023-01-19T08:24:35;7.60;;;5.72;;
37677;SDS011;23517;50.390;8.616;2023-01-19T08:27:02;11.70;;;5.30;;
37677;SDS011;23517;50.390;8.616;2023-01-19T08:29:29;9.10;;;5.90;;
37677;SDS011;23517;50.390;8.616;2023-01-19T08:31:57;8.48;;;5.85;;
37677;SDS011;23517;50.390;8.616;2023-01-19T08:34:25;8.00;;;5.55;;
37677;SDS011;23517;50.390;8.616;2023-01-19T08:36:52;8.30;;;5.60;;
37677;SDS011;23517;50.390;8.616;2023-01-19T08:39:19;8.73;;;5.38;;
37677;SDS011;23517;50.390;8.616;2023-01-19T08:41:46;6.60;;;4.90;;
37677;SDS011;23517;50.390;8.616;2023-01-19T08:44:12;6.70;;;4.97;;
37677;SDS011;23517;50.390;8.616;2023-01-19T08:46:39;10.10;;;5.82;;
37677;SDS011;23517;50.390;8.616;2023-01-19T08:49:06;8.57;;;5.30;;
37677;SDS011;23517;50.390;8.616;2023-01-19T08:51:33;10.93;;;5.50;;
37677;SDS011;23517;50.390;8.616;2023-01-19T08:54:00;6.30;;;5.00;;
37677;SDS011;23517;50.390;8.616;2023-01-19T08:56:27;8.43;;;5.40;;
37677;SDS011;23517;50.390;8.616;2023-01-19T08:58:53;7.90;;;4.95;;
37677;SDS011;23517;50.390;8.616;2023-01-19T09:01:34;7.25;;;4.75;;
37677;SDS011;23517;50.390;8.616;2023-01-19T09:04:02;6.05;;;4.80;;
37677;SDS011;23517;50.390;8.616;2023-01-19T09:06:28;6.75;;;4.25;;
37677;SDS011;23517;50.390;8.616;2023-01-19T09:08:55;8.50;;;4.85;;
37677;SDS011;23517;50.390;8.616;2023-01-19T09:11:22;7.38;;;4.93;;
37677;SDS011;23517;50.390;8.616;2023-01-19T09:13:49;6.35;;;4.75;;
37677;SDS011;23517;50.390;8.616;2023-01-19T09:16:16;8.23;;;4.63;;
37677;SDS011;23517;50.390;8.616;2023-01-19T09:18:43;8.80;;;5.25;;
37677;SDS011;23517;50.390;8.616;2023-01-19T09:21:11;8.15;;;4.78;;
37677;SDS011;23517;50.390;8.616;2023-01-19T09:23:38;8.07;;;5.28;;
37677;SDS011;23517;50.390;8.616;2023-01-19T09:26:05;8.23;;;4.72;;
37677;SDS011;23517;50.390;8.616;2023-01-19T09:28:32;7.85;;;4.85;;
37677;SDS011;23517;50.390;8.616;2023-01-19T09:31:04;8.73;;;4.68;;
37677;SDS011;23517;50.390;8.616;2023-01-19T09:33:34;7.03;;;4.85;;
37677;SDS011;23517;50.390;8.616;2023-01-19T09:36:01;7.05;;;4.60;;
37677;SDS011;23517;50.390;8.616;2023-01-19T09:38:28;7.05;;;4.20;;
37677;SDS011;23517;50.390;8.616;2023-01-19T09:40:58;7.45;;;4.47;;
37677;SDS011;23517;50.390;8.616;2023-01-19T09:43:39;7.72;;;4.40;;
37677;SDS011;23517;50.390;8.616;2023-01-19T09:46:14;7.05;;;4.15;;
37677;SDS011;23517;50.390;8.616;2023-01-19T09:48:51;7.68;;;4.00;;
37677;SDS011;23517;50.390;8.616;2023-01-19T09:56:42;6.43;;;3.63;;
37677;SDS011;23517;50.390;8.616;2023-01-19T09:59:15;3.92;;;3.20;;
37677;SDS011;23517;50.390;8.616;2023-01-19T10:10:53;9.18;;;5.53;;
37677;SDS011;23517;50.390;8.616;2023-01-19T10:16:08;6.75;;;4.40;;
37677;SDS011;23517;50.390;8.616;2023-01-19T10:22:21;8.23;;;3.60;;
37677;SDS011;23517;50.390;8.616;2023-01-19T10:25:00;6.93;;;4.18;;
37677;SDS011;23517;50.390;8.616;2023-01-19T10:27:32;5.72;;;3.60;;
37677;SDS011;23517;50.390;8.616;2023-01-19T10:30:00;5.22;;;3.58;;
37677;SDS011;23517;50.390;8.616;2023-01-19T10:32:34;6.95;;;3.80;;
37677;SDS011;23517;50.390;8.616;2023-01-19T10:35:05;5.00;;;3.72;;
37677;SDS011;23517;50.390;8.616;2023-01-19T10:37:47;5.30;;;3.50;;
37677;SDS011;23517;50.390;8.616;2023-01-19T10:40:16;6.32;;;3.33;;
37677;SDS011;23517;50.390;8.616;2023-01-19T10:45:59;4.47;;;3.20;;
37677;SDS011;23517;50.390;8.616;2023-01-19T10:48:39;5.28;;;3.13;;
37677;SDS011;23517;50.390;8.616;2023-01-19T10:51:07;6.22;;;3.28;;
37677;SDS011;23517;50.390;8.616;2023-01-19T10:53:36;6.53;;;3.38;;
37677;SDS011;23517;50.390;8.616;2023-01-19T10:56:15;6.47;;;3.33;;
37677;SDS011;23517;50.390;8.616;2023-01-19T10:58:51;7.05;;;3.10;;
37677;SDS011;23517;50.390;8.616;2023-01-19T11:03:52;4.82;;;2.80;;
37677;SDS011;23517;50.390;8.616;2023-01-19T11:06:23;3.45;;;2.80;;
37677;SDS011;23517;50.390;8.616;2023-01-19T11:09:07;4.50;;;2.70;;
37677;SDS011;23517;50.390;8.616;2023-01-19T11:11:41;6.07;;;2.80;;
37677;SDS011;23517;50.390;8.616;2023-01-19T11:14:16;3.90;;;2.83;;
37677;SDS011;23517;50.390;8.616;2023-01-19T11:16:53;7.30;;;2.70;;
37677;SDS011;23517;50.390;8.616;2023-01-19T11:19:26;3.67;;;2.63;;
37677;SDS011;23517;50.390;8.616;2023-01-19T11:24:46;3.92;;;2.63;;
37677;SDS011;23517;50.390;8.616;2023-01-19T11:27:19;3.60;;;2.70;;
37677;SDS011;23517;50.390;8.616;2023-01-19T11:29:58;2.58;;;2.22;;
37677;SDS011;23517;50.390;8.616;2023-01-19T11:32:34;4.38;;;2.50;;
37677;SDS011;23517;50.390;8.616;2023-01-19T11:35:27;5.30;;;2.70;;
37677;SDS011;23517;50.390;8.616;2023-01-19T11:40:42;3.03;;;2.60;;
37677;SDS011;23517;50.390;8.616;2023-01-19T11:43:20;4.38;;;2.83;;
37677;SDS011;23517;50.390;8.616;2023-01-19T11:46:13;5.28;;;2.60;;
37677;SDS011;23517;50.390;8.616;2023-01-19T11:48:42;3.45;;;2.70;;
37677;SDS011;23517;50.390;8.616;2023-01-19T11:51:24;4.97;;;2.95;;
37677;SDS011;23517;50.390;8.616;2023-01-19T11:53:55;4.22;;;2.53;;
37677;SDS011;23517;50.390;8.616;2023-01-19T11:56:23;3.47;;;2.58;;
37677;SDS011;23517;50.390;8.616;2023-01-19T11:58:53;3.30;;;2.47;;
37677;SDS011;23517;50.390;8.616;2023-01-19T12:01:22;2.70;;;2.40;;
37677;SDS011;23517;50.390;8.616;2023-01-19T12:04:00;3.75;;;2.30;;
37677;SDS011;23517;50.390;8.616;2023-01-19T12:06:52;5.80;;;3.10;;
37677;SDS011;23517;50.390;8.616;2023-01-19T12:11:56;5.55;;;2.72;;
37677;SDS011;23517;50.390;8.616;2023-01-19T12:17:25;7.15;;;2.60;;
37677;SDS011;23517;50.390;8.616;2023-01-19T12:22:34;3.90;;;3.17;;
37677;SDS011;23517;50.390;8.616;2023-01-19T12:28:14;4.88;;;2.83;;
37677;SDS011;23517;50.390;8.616;2023-01-19T12:30:52;5.18;;;2.65;;
37677;SDS011;23517;50.390;8.616;2023-01-19T12:36:01;5.75;;;2.85;;
37677;SDS011;23517;50.390;8.616;2023-01-19T12:41:26;4.85;;;3.53;;
37677;SDS011;23517;50.390;8.616;2023-01-19T12:46:37;5.57;;;3.55;;
37677;SDS011;23517;50.390;8.616;2023-01-19T12:54:49;5.70;;;3.33;;
37677;SDS011;23517;50.390;8.616;2023-01-19T13:00:48;4.97;;;3.30;;
37677;SDS011;23517;50.390;8.616;2023-01-19T13:21:34;5.07;;;3.20;;
37677;SDS011;23517;50.390;8.616;2023-01-19T13:24:11;6.35;;;3.60;;
37677;SDS011;23517;50.390;8.616;2023-01-19T13:32:00;7.38;;;3.00;;
37677;SDS011;23517;50.390;8.616;2023-01-19T13:34:39;4.88;;;3.22;;
37677;SDS011;23517;50.390;8.616;2023-01-19T13:37:14;6.68;;;3.72;;
37677;SDS011;23517;50.390;8.616;2023-01-19T13:39:46;6.85;;;3.67;;
37677;SDS011;23517;50.390;8.616;2023-01-19T13:42:16;5.82;;;3.88;;
37677;SDS011;23517;50.390;8.616;2023-01-19T13:44:53;4.35;;;3.47;;
37677;SDS011;23517;50.390;8.616;2023-01-19T13:47:30;6.15;;;3.75;;
37677;SDS011;23517;50.390;8.616;2023-01-19T13:50:18;6.47;;;3.58;;
37677;SDS011;23517;50.390;8.616;2023-01-19T13:52:48;7.15;;;3.78;;
37677;SDS011;23517;50.390;8.616;2023-01-19T13:55:19;7.70;;;4.28;;
37677;SDS011;23517;50.390;8.616;2023-01-19T13:57:47;6.25;;;3.63;;
37677;SDS011;23517;50.390;8.616;2023-01-19T14:00:48;10.00;;;3.85;;
37677;SDS011;23517;50.390;8.616;2023-01-19T14:05:41;6.88;;;3.30;;
37677;SDS011;23517;50.390;8.616;2023-01-19T14:11:22;8.05;;;3.85;;
37677;SDS011;23517;50.390;8.616;2023-01-19T14:13:32;7.38;;;3.78;;
37677;SDS011;23517;50.390;8.616;2023-01-19T14:16:13;7.28;;;3.45;;
37677;SDS011;23517;50.390;8.616;2023-01-19T14:18:42;4.30;;;3.40;;
37677;SDS011;23517;50.390;8.616;2023-01-19T14:21:10;11.18;;;3.72;;
37677;SDS011;23517;50.390;8.616;2023-01-19T14:23:49;9.18;;;4.05;;
37677;SDS011;23517;50.390;8.616;2023-01-19T14:29:15;6.38;;;3.65;;
37677;SDS011;23517;50.390;8.616;2023-01-19T14:35:13;5.55;;;3.55;;
37677;SDS011;23517;50.390;8.616;2023-01-19T14:37:49;6.07;;;3.47;;
37677;SDS011;23517;50.390;8.616;2023-01-19T14:40:18;7.78;;;4.45;;
37677;SDS011;23517;50.390;8.616;2023-01-19T14:42:53;8.05;;;4.05;;
37677;SDS011;23517;50.390;8.616;2023-01-19T14:45:35;9.02;;;4.25;;
37677;SDS011;23517;50.390;8.616;2023-01-19T14:50:48;9.25;;;4.35;;
37677;SDS011;23517;50.390;8.616;2023-01-19T14:53:37;4.78;;;3.20;;
37677;SDS011;23517;50.390;8.616;2023-01-19T14:56:04;11.20;;;3.53;;
37677;SDS011;23517;50.390;8.616;2023-01-19T14:58:33;9.10;;;3.75;;
37677;SDS011;23517;50.390;8.616;2023-01-19T15:01:00;5.53;;;3.60;;
37677;SDS011;23517;50.390;8.616;2023-01-19T15:03:28;7.30;;;3.30;;
37677;SDS011;23517;50.390;8.616;2023-01-19T15:06:14;6.32;;;3.45;;
37677;SDS011;23517;50.390;8.616;2023-01-19T15:08:46;4.97;;;3.15;;
37677;SDS011;23517;50.390;8.616;2023-01-19T15:11:19;6.72;;;3.35;;
37677;SDS011;23517;50.390;8.616;2023-01-19T15:13:59;8.95;;;3.40;;
37677;SDS011;23517;50.390;8.616;2023-01-19T15:16:27;11.45;;;3.75;;
37677;SDS011;23517;50.390;8.616;2023-01-19T15:18:59;4.95;;;3.30;;
37677;SDS011;23517;50.390;8.616;2023-01-19T15:21:26;7.22;;;3.70;;
37677;SDS011;23517;50.390;8.616;2023-01-19T15:23:53;7.75;;;3.95;;
37677;SDS011;23517;50.390;8.616;2023-01-19T15:26:22;5.53;;;3.88;;
37677;SDS011;23517;50.390;8.616;2023-01-19T15:28:50;7.78;;;4.03;;
37677;SDS011;23517;50.390;8.616;2023-01-19T15:31:19;10.18;;;4.10;;
37677;SDS011;23517;50.390;8.616;2023-01-19T15:33:48;10.38;;;4.53;;
37677;SDS011;23517;50.390;8.616;2023-01-19T15:36:18;7.20;;;4.68;;
37677;SDS011;23517;50.390;8.616;2023-01-19T15:38:47;9.82;;;4.25;;
37677;SDS011;23517;50.390;8.616;2023-01-19T15:41:26;7.13;;;4.15;;
37677;SDS011;23517;50.390;8.616;2023-01-19T15:43:54;11.57;;;5.15;;
37677;SDS011;23517;50.390;8.616;2023-01-19T15:46:22;11.50;;;5.22;;
37677;SDS011;23517;50.390;8.616;2023-01-19T15:48:50;8.15;;;4.05;;
37677;SDS011;23517;50.390;8.616;2023-01-19T15:51:19;8.90;;;3.78;;
37677;SDS011;23517;50.390;8.616;2023-01-19T15:53:53;8.50;;;3.75;;
37677;SDS011;23517;50.390;8.616;2023-01-19T15:56:21;6.32;;;3.63;;
37677;SDS011;23517;50.390;8.616;2023-01-19T15:58:55;8.60;;;3.75;;
37677;SDS011;23517;50.390;8.616;2023-01-19T16:01:24;6.22;;;3.60;;
37677;SDS011;23517;50.390;8.616;2023-01-19T16:04:00;7.57;;;3.90;;
37677;SDS011;23517;50.390;8.616;2023-01-19T16:06:29;6.72;;;3.38;;
37677;SDS011;23517;50.390;8.616;2023-01-19T16:08:57;5.63;;;3.40;;
37677;SDS011;23517;50.390;8.616;2023-01-19T16:11:29;7.40;;;3.40;;
37677;SDS011;23517;50.390;8.616;2023-01-19T16:13:58;5.85;;;3.80;;
37677;SDS011;23517;50.390;8.616;2023-01-19T16:16:25;7.47;;;3.88;;
37677;SDS011;23517;50.390;8.616;2023-01-19T16:18:53;8.60;;;3.72;;
37677;SDS011;23517;50.390;8.616;2023-01-19T16:21:20;7.22;;;4.53;;
37677;SDS011;23517;50.390;8.616;2023-01-19T16:23:47;9.23;;;4.68;;
37677;SDS011;23517;50.390;8.616;2023-01-19T16:26:33;8.00;;;4.70;;
37677;SDS011;23517;50.390;8.616;2023-01-19T16:29:03;8.65;;;4.32;;
37677;SDS011;23517;50.390;8.616;2023-01-19T16:31:36;9.35;;;4.22;;
37677;SDS011;23517;50.390;8.616;2023-01-19T16:34:06;9.85;;;3.95;;
37677;SDS011;23517;50.390;8.616;2023-01-19T16:36:34;9.63;;;3.90;;
37677;SDS011;23517;50.390;8.616;2023-01-19T16:39:04;8.55;;;3.80;;
37677;SDS011;23517;50.390;8.616;2023-01-19T16:41:35;8.82;;;4.72;;
37677;SDS011;23517;50.390;8.616;2023-01-19T16:44:02;8.63;;;4.25;;
37677;SDS011;23517;50.390;8.616;2023-01-19T16:46:31;7.95;;;3.83;;
37677;SDS011;23517;50.390;8.616;2023-01-19T16:49:05;7.53;;;3.80;;
37677;SDS011;23517;50.390;8.616;2023-01-19T16:51:37;9.65;;;4.15;;
37677;SDS011;23517;50.390;8.616;2023-01-19T16:54:04;7.28;;;3.90;;